createdAt,value
2022-11-20T00:01:30.307Z,100967.97
2022-11-20T00:03:59.001Z,100956.38
2022-11-20T00:06:26.921Z,100961.44
2022-11-20T00:08:56.442Z,100949.81
2022-11-20T00:11:25.083Z,100949.81
2022-11-20T00:13:55.090Z,100947.19
2022-11-20T00:16:24.797Z,100954.50
2022-11-20T00:18:52.453Z,100947.19
2022-11-20T00:21:27.428Z,100958.94
2022-11-20T00:23:56.095Z,100955.63
2022-11-20T00:26:24.099Z,100959.97
2022-11-20T00:28:56.219Z,100959.13
2022-11-20T00:31:23.528Z,100937.47
2022-11-20T00:33:50.755Z,100947.41
2022-11-20T00:36:22.885Z,100942.66
2022-11-20T00:38:56.905Z,100936.69
2022-11-20T00:41:25.092Z,100945.41
2022-11-20T00:43:56.704Z,100960.38
2022-11-20T00:46:25.419Z,100961.38
2022-11-20T00:48:52.794Z,100952.44
2022-11-20T00:51:21.616Z,100950.03
2022-11-20T00:53:48.371Z,100959.88
2022-11-20T00:56:17.493Z,100957.22
2022-11-20T00:58:47.103Z,100948.16
2022-11-20T01:01:23.496Z,100946.78
2022-11-20T01:03:52.174Z,100957.50
2022-11-20T01:06:45.209Z,100948.31
2022-11-20T01:09:15.658Z,100941.38
2022-11-20T01:11:45.255Z,100947.59
2022-11-20T01:14:15.685Z,100952.84
2022-11-20T01:16:45.461Z,100938.72
2022-11-20T01:19:17.906Z,100942.97
2022-11-20T01:21:49.805Z,100953.75
2022-11-20T01:24:17.931Z,100946.28
2022-11-20T01:26:46.649Z,100941.44
2022-11-20T01:29:20.284Z,100943.03
2022-11-20T01:31:47.199Z,100933.66
2022-11-20T01:34:16.132Z,100921.88
2022-11-20T01:36:43.919Z,100926.75
2022-11-20T01:39:15.652Z,100926.91
2022-11-20T01:42:05.679Z,100911.00
2022-11-20T01:44:55.356Z,100921.59
2022-11-20T01:47:40.260Z,100902.53
2022-11-20T01:50:15.632Z,100913.22
2022-11-20T01:52:48.447Z,100909.84
2022-11-20T01:55:22.314Z,100910.06
2022-11-20T01:57:50.116Z,100900.47
2022-11-20T02:00:18.995Z,100905.50
2022-11-20T02:02:52.725Z,100893.81
2022-11-20T02:05:28.182Z,100883.78
2022-11-20T02:07:57.200Z,100879.53
2022-11-20T02:31:49.004Z,100886.16
2022-11-20T02:34:15.686Z,100885.75
2022-11-20T02:36:43.251Z,100893.13
2022-11-20T02:39:13.402Z,100873.03
2022-11-20T02:41:40.397Z,100881.31
2022-11-20T02:44:07.381Z,100889.75
2022-11-20T02:46:34.765Z,100883.03
2022-11-20T02:49:05.477Z,100870.84
2022-11-20T02:51:33.430Z,100888.53
2022-11-20T02:54:00.228Z,100885.25
2022-11-20T02:56:27.111Z,100878.81
2022-11-20T02:58:53.863Z,100882.91
2022-11-20T03:01:20.662Z,100880.59
2022-11-20T03:03:49.552Z,100887.28
2022-11-20T03:06:17.763Z,100873.84
2022-11-20T03:08:44.896Z,100872.88
2022-11-20T03:32:41.009Z,100806.84
2022-11-20T03:35:09.304Z,100797.47
2022-11-20T03:42:52.631Z,100805.53
2022-11-20T03:45:20.025Z,100797.97
2022-11-20T03:47:47.156Z,100831.84
2022-11-20T04:49:41.100Z,100733.19
2022-11-20T04:52:07.776Z,100834.25
2022-11-20T04:54:34.387Z,100822.84
2022-11-20T04:57:01.264Z,100824.28
2022-11-20T04:59:27.896Z,100815.25
2022-11-20T05:01:54.708Z,100819.66
2022-11-20T05:04:21.555Z,100808.16
2022-11-20T05:06:48.252Z,100831.50
2022-11-20T05:09:15.086Z,100826.53
2022-11-20T05:11:41.922Z,100819.06
2022-11-20T05:14:08.655Z,100817.41
2022-11-20T05:16:36.617Z,100824.78
2022-11-20T05:19:03.625Z,100830.69
2022-11-20T05:21:32.174Z,100816.59
2022-11-20T05:23:58.887Z,100820.88
2022-11-20T05:26:25.793Z,100800.09
2022-11-20T05:28:52.969Z,100818.13
2022-11-20T07:51:36.335Z,100803.38
2022-11-20T07:54:03.133Z,100792.34
2022-11-20T07:56:29.787Z,100795.31
2022-11-20T07:58:56.627Z,100799.28
2022-11-20T08:01:23.493Z,100790.69
2022-11-20T08:03:50.170Z,100796.19
2022-11-20T08:06:16.976Z,100791.09
2022-11-20T08:08:43.659Z,100795.88
2022-11-20T08:21:49.245Z,100749.38
2022-11-20T08:24:16.647Z,100738.66
2022-11-20T08:26:43.876Z,100781.06
2022-11-20T08:29:10.700Z,100759.41
2022-11-20T08:31:37.482Z,100785.38
2022-11-20T08:34:09.010Z,100786.72
2022-11-20T08:36:36.988Z,100787.16
2022-11-20T08:39:04.447Z,100803.50
2022-11-20T08:41:34.220Z,100808.63
2022-11-20T08:44:07.802Z,100804.66
2022-11-20T08:46:39.718Z,100800.72
2022-11-20T08:49:08.152Z,100811.91
2022-11-20T09:40:59.281Z,100784.81
2022-11-20T10:32:39.970Z,100725.09
2022-11-20T10:35:34.620Z,100727.19
2022-11-20T10:38:04.071Z,100714.34
2022-11-20T10:40:46.749Z,100719.09
2022-11-20T10:43:15.756Z,100708.09
2022-11-20T10:45:57.248Z,100730.09
2022-11-20T10:48:26.607Z,100722.16
2022-11-20T10:51:27.194Z,100722.03
2022-11-20T10:54:02.854Z,100715.19
2022-11-20T10:56:36.679Z,100723.13
2022-11-20T10:59:25.152Z,100717.88
2022-11-20T11:01:51.782Z,100692.53
2022-11-20T11:04:41.818Z,100702.75
2022-11-20T11:07:16.509Z,100708.75
2022-11-20T11:09:55.218Z,100696.91
2022-11-20T11:25:59.531Z,100667.31
2022-11-20T11:28:28.465Z,100678.91
2022-11-20T12:11:19.091Z,100624.16
2022-11-20T12:14:38.806Z,100611.09
2022-11-20T12:17:06.350Z,100589.59
2022-11-20T12:19:35.868Z,100575.38
2022-11-20T12:22:08.412Z,100598.34
2022-11-20T12:24:47.713Z,100595.22
2022-11-20T12:27:41.977Z,100585.78
2022-11-20T12:30:14.651Z,100524.34
2022-11-20T12:33:10.519Z,100559.19
2022-11-20T12:36:11.275Z,100489.00
2022-11-20T12:38:55.504Z,100524.78
2022-11-20T12:41:46.875Z,100575.81
2022-11-20T12:45:03.772Z,100570.09
2022-11-20T12:47:33.473Z,100563.06
2022-11-20T12:52:58.930Z,100558.81
2022-11-20T12:55:50.182Z,100561.91
2022-11-20T12:58:42.163Z,100553.75
2022-11-20T13:01:53.772Z,100563.81
2022-11-20T13:04:39.231Z,100564.31
2022-11-20T13:07:15.588Z,100556.19
2022-11-20T13:09:47.158Z,100565.88
2022-11-20T13:17:55.698Z,100548.41
2022-11-20T13:20:22.523Z,100523.50
2022-11-20T13:22:53.443Z,100431.13
2022-11-20T13:25:40.518Z,100488.19
2022-11-20T13:28:10.297Z,100525.34
2022-11-20T13:30:38.593Z,100461.88
2022-11-20T13:33:10.349Z,100493.16
2022-11-20T13:35:42.022Z,100466.94
2022-11-20T13:38:14.792Z,100474.28
2022-11-20T13:40:58.195Z,100488.06
2022-11-20T13:43:27.697Z,100505.63
2022-11-20T13:45:57.405Z,100500.75
2022-11-20T13:48:48.217Z,100446.50
2022-11-20T13:51:33.462Z,100479.63
2022-11-20T13:54:24.013Z,100474.75
2022-11-20T13:57:20.368Z,100471.94
2022-11-20T13:59:59.236Z,100457.66
2022-11-20T14:02:31.069Z,100452.78
2022-11-20T14:05:02.680Z,100450.88
2022-11-20T14:07:43.794Z,100450.59
2022-11-20T14:10:31.321Z,100446.72
2022-11-20T14:12:58.851Z,100454.31
2022-11-20T14:15:34.677Z,100458.34
2022-11-20T14:18:16.063Z,100438.78
2022-11-20T14:20:44.078Z,100431.88
2022-11-20T14:23:11.818Z,100441.91
2022-11-20T14:25:42.858Z,100440.47
2022-11-20T14:28:24.675Z,100438.78
2022-11-20T14:30:51.650Z,100408.47
2022-11-20T14:33:18.563Z,100417.16
2022-11-20T14:35:48.168Z,100411.81
2022-11-20T14:38:18.100Z,100417.09
2022-11-20T14:40:45.059Z,100420.75
2022-11-20T14:43:28.261Z,100432.75
2022-11-20T14:46:02.447Z,100424.22
2022-11-20T14:48:35.324Z,100415.31
2022-11-20T14:51:02.046Z,100404.09
2022-11-20T14:53:28.687Z,100425.88
2022-11-20T14:55:59.142Z,100431.75
2022-11-20T14:58:30.977Z,100396.97
2022-11-20T15:01:21.329Z,100418.97
2022-11-20T15:04:00.237Z,100366.28
2022-11-20T15:06:28.167Z,100405.34
2022-11-20T15:08:55.339Z,100400.44
2022-11-20T15:11:35.806Z,100394.34
2022-11-20T15:14:05.817Z,100381.09
2022-11-20T15:21:50.035Z,100361.22
2022-11-20T15:24:17.129Z,100364.09
2022-11-20T15:26:44.140Z,100346.41
2022-11-20T15:29:19.688Z,100364.09
2022-11-20T15:31:46.425Z,100360.78
2022-11-20T15:34:14.465Z,100359.84
2022-11-20T15:36:41.359Z,100357.97
2022-11-20T15:39:08.700Z,100348.13
2022-11-20T15:41:36.125Z,100344.03
2022-11-20T15:44:03.924Z,100334.66
2022-11-20T15:46:39.235Z,100335.22
2022-11-20T15:49:07.010Z,100344.81
2022-11-20T15:51:42.604Z,100330.97
2022-11-20T15:54:13.585Z,100324.28
2022-11-20T15:56:40.246Z,100330.25
2022-11-20T15:59:06.899Z,100333.56
2022-11-20T16:01:33.732Z,100320.22
2022-11-20T16:04:01.326Z,100294.78
2022-11-20T16:06:28.472Z,100291.13
2022-11-20T16:08:57.971Z,100273.22
2022-11-20T16:11:26.378Z,100199.13
2022-11-20T16:14:11.942Z,100236.19
2022-11-20T16:16:40.342Z,100233.84
2022-11-20T16:19:07.706Z,100230.03
2022-11-20T16:21:47.553Z,100262.19
2022-11-20T16:24:18.438Z,100228.63
2022-11-20T16:26:50.059Z,100242.88
2022-11-20T16:29:16.765Z,100276.56
2022-11-20T16:31:43.415Z,100276.31
2022-11-20T16:34:12.664Z,100272.22
2022-11-20T16:36:44.699Z,100277.81
2022-11-20T16:39:12.560Z,100287.06
2022-11-20T16:41:39.643Z,100280.28
2022-11-20T16:44:12.740Z,100288.47
2022-11-20T16:46:41.438Z,100253.94
2022-11-20T16:49:13.166Z,100270.22
2022-11-20T16:51:47.439Z,100260.13
2022-11-20T16:54:19.459Z,100262.34
2022-11-20T16:56:48.445Z,100260.69
2022-11-20T16:59:15.246Z,100262.91
2022-11-20T17:01:46.322Z,100232.41
2022-11-20T17:04:13.505Z,100232.25
2022-11-20T17:06:44.456Z,100256.56
2022-11-20T17:09:11.773Z,100223.72
2022-11-20T17:11:38.612Z,100247.19
2022-11-20T17:14:07.602Z,100246.13
2022-11-20T17:16:36.230Z,100243.66
2022-11-20T17:19:05.340Z,100243.66
2022-11-20T17:21:36.222Z,100237.69
2022-11-20T17:24:05.150Z,100228.41
2022-11-20T17:26:32.386Z,100224.91
2022-11-20T17:29:07.765Z,100208.44
2022-11-20T17:31:38.875Z,100215.66
2022-11-20T17:34:11.151Z,100186.22
2022-11-20T17:36:45.469Z,100210.06
2022-11-20T17:39:16.885Z,100209.13
2022-11-20T17:41:43.867Z,100204.19
2022-11-20T17:44:11.906Z,100205.97
2022-11-20T17:46:39.010Z,100213.47
2022-11-20T17:49:05.744Z,100212.88
2022-11-20T17:51:35.146Z,100202.38
2022-11-20T17:54:04.822Z,100215.03
2022-11-20T17:56:54.332Z,100211.56
2022-11-20T17:59:21.922Z,100211.00
2022-11-20T18:01:51.793Z,100197.31
2022-11-20T18:04:18.543Z,100199.91
2022-11-20T18:06:52.592Z,100182.53
2022-11-20T18:11:54.597Z,100201.69
2022-11-20T18:17:07.563Z,100164.34
2022-11-20T18:19:42.620Z,100199.63
2022-11-20T18:30:20.839Z,100136.41
2022-11-20T18:32:47.601Z,100138.53
2022-11-20T18:37:49.546Z,100158.84
2022-11-20T18:40:18.010Z,100104.25
2022-11-20T18:43:03.834Z,100098.09
2022-11-20T18:45:30.758Z,100160.97
2022-11-20T18:47:57.628Z,100154.31
2022-11-20T18:50:24.455Z,100134.78
2022-11-20T18:52:51.273Z,100131.03
2022-11-20T18:55:18.015Z,100108.00
2022-11-20T18:57:45.167Z,100108.81
2022-11-20T19:00:12.481Z,100129.19
2022-11-20T19:02:42.502Z,100124.72
2022-11-20T19:05:14.535Z,100108.09
2022-11-20T19:07:43.377Z,100095.34
2022-11-20T19:10:10.538Z,100097.34
2022-11-20T19:12:37.534Z,100103.06
2022-11-20T19:15:05.117Z,100114.63
2022-11-20T19:17:33.398Z,100108.56
2022-11-20T19:20:00.371Z,100088.56
2022-11-20T19:22:27.068Z,100098.28
2022-11-20T19:24:53.704Z,100095.94
2022-11-20T19:27:20.382Z,100084.25
2022-11-20T19:29:47.022Z,100088.34
2022-11-20T19:32:13.651Z,100078.16
2022-11-20T19:34:40.511Z,100080.25
2022-11-20T19:37:07.247Z,100062.38
2022-11-20T19:39:35.641Z,100076.00
2022-11-20T19:42:02.773Z,100072.19
2022-11-20T19:44:29.456Z,100072.03
2022-11-20T19:46:57.441Z,100064.81
2022-11-20T19:49:24.255Z,100051.38
2022-11-20T19:51:51.348Z,100042.03
2022-11-20T19:54:18.218Z,100045.16
2022-11-20T19:56:50.013Z,100047.97
2022-11-20T19:59:16.818Z,100047.03
2022-11-20T20:01:47.372Z,100041.88
2022-11-20T20:04:14.177Z,100037.56
2022-11-20T20:06:42.160Z,100026.94
2022-11-20T20:09:12.266Z,100037.31
2022-11-20T20:11:39.993Z,100032.53
2022-11-20T20:14:14.655Z,100033.78
2022-11-20T20:16:42.954Z,100024.22
2022-11-20T20:19:17.582Z,100027.38
2022-11-20T20:21:44.715Z,100028.19
2022-11-20T20:24:12.062Z,100021.28
2022-11-20T20:26:38.910Z,100027.16
2022-11-20T20:29:05.544Z,100032.03
2022-11-20T20:31:36.224Z,100007.97
2022-11-20T20:34:05.569Z,100032.16
2022-11-20T20:36:33.127Z,100023.63
2022-11-20T20:39:01.185Z,100015.19
2022-11-20T20:41:28.033Z,100008.91
2022-11-20T20:44:13.397Z,100010.78
2022-11-20T20:46:41.528Z,100013.13
2022-11-20T20:49:09.120Z,100012.19
2022-11-20T20:51:36.629Z,100005.41
2022-11-20T20:54:04.206Z,100013.25
2022-11-20T20:56:30.828Z,100000.38
2022-11-20T20:58:57.734Z,99996.28
2022-11-20T21:01:29.062Z,99954.63
2022-11-20T21:03:56.965Z,99946.22
2022-11-20T21:06:24.328Z,99977.50
2022-11-20T21:08:51.471Z,99981.81
2022-11-20T21:11:20.193Z,99987.88
2022-11-20T21:13:48.099Z,100003.63
2022-11-20T21:16:17.499Z,99995.47
2022-11-20T21:18:44.299Z,99993.59
2022-11-20T21:21:32.764Z,99987.88
2022-11-20T21:23:59.667Z,99982.16
2022-11-20T21:26:26.462Z,99986.69
2022-11-20T21:28:53.531Z,99989.97
2022-11-20T21:31:25.119Z,99981.66
2022-11-20T21:33:53.206Z,100002.31
2022-11-20T21:36:24.639Z,99985.03
2022-11-20T21:38:52.833Z,99988.31
2022-11-20T21:41:19.729Z,100003.63
2022-11-20T21:43:51.596Z,99997.53
2022-11-20T21:46:25.779Z,100010.19
2022-11-20T21:48:53.477Z,100006.94
2022-11-20T21:51:22.771Z,100004.72
2022-11-20T21:53:50.955Z,99998.88
2022-11-20T21:56:20.823Z,100004.44
2022-11-20T21:58:48.700Z,100007.59
2022-11-20T22:01:17.547Z,100014.50
2022-11-20T22:03:49.249Z,100004.38
2022-11-20T22:06:16.949Z,99994.59
2022-11-20T22:08:44.415Z,99981.50
2022-11-20T22:11:13.961Z,99999.94
2022-11-20T22:13:59.548Z,100022.81
2022-11-20T22:16:26.834Z,100038.94
2022-11-20T22:18:55.557Z,100021.09
2022-11-20T22:21:24.712Z,100046.56
2022-11-20T22:23:52.273Z,100039.22
2022-11-20T22:26:23.016Z,100041.88
2022-11-20T22:28:51.480Z,100047.84
2022-11-20T22:31:22.100Z,100058.72
2022-11-20T22:33:49.066Z,100055.84
2022-11-20T22:36:25.147Z,100041.94
2022-11-20T22:38:52.169Z,100049.75
2022-11-20T22:41:21.171Z,100054.81
2022-11-20T22:43:47.956Z,100057.25
2022-11-20T22:46:17.416Z,100065.41
2022-11-20T22:48:57.585Z,100062.03
2022-11-20T22:51:27.239Z,100073.03
2022-11-20T22:53:54.309Z,100069.75
2022-11-20T22:56:22.002Z,100059.97
2022-11-20T22:58:51.144Z,100067.91
2022-11-20T23:01:18.870Z,100074.09
2022-11-20T23:03:48.448Z,100082.13
2022-11-20T23:06:16.552Z,100092.78
2022-11-20T23:08:43.603Z,100076.88
2022-11-20T23:11:13.854Z,100073.16
2022-11-20T23:13:41.374Z,100088.81
2022-11-20T23:16:09.484Z,100086.22
2022-11-20T23:18:36.950Z,100074.66
2022-11-20T23:21:08.677Z,100074.66
2022-11-20T23:23:35.537Z,100058.88
2022-11-20T23:26:12.851Z,100073.97
2022-11-20T23:28:40.721Z,100066.72
2022-11-20T23:31:07.872Z,100078.78
2022-11-20T23:33:39.553Z,100088.22
2022-11-20T23:36:07.010Z,100083.88
2022-11-20T23:38:34.586Z,100079.81
2022-11-20T23:41:01.852Z,100068.59
2022-11-20T23:43:28.978Z,100077.72
2022-11-20T23:45:57.786Z,100083.00
2022-11-20T23:48:26.523Z,100085.69
2022-11-20T23:50:53.311Z,100076.00
2022-11-20T23:53:21.031Z,100079.72
2022-11-20T23:55:50.108Z,100070.72
2022-11-20T23:58:17.470Z,100075.88
